Startpagina
METAR-TAF:

METAR-TAF

Vliegvelden :

Aizawl, India

breedte: 23-50-18N, lengte: 92-37-13E, hoogte: 405 m

Actueel weer

Dit bericht is 19 minuten geleden gemaakt, om 07:00 UTC
Wind 3 kt uit het noordnoordoosten
Temperatuur 27°C
Vochtigheid 58%
Druk 1013 hPa
Zicht: 5000 m
Weinig wolken op 1800 ft
Verspreide wolken op 2500 ft
Heiigheid

METAR: VELP 110700Z 02003KT 5000 HZ FEW018 SCT025 27/18 Q1013 NOSIG

Tijdstip: 12:49 (07:19 UTC)


TAF: ontbreekt

Waarnemingen en weersverwachtingen van meer dan 4000 vliegvelden (METAR en TAF).

De beschikbare stations zijn de gele en rode punten op de kaart.

Ga met uw muis naar het station om de naam te zien.

Klik dan om waarnemingen en weersverwachtingen te zien.

kaart wijzigen: klik op de groene knoppen met een zwart kruis om in te zoomen, op de groene knop met een streepje om uit te zoomen of op de groene pijlen voor aangrenzende kaarten.


METAR-TAF: